Time;durP1;ratioP1;P1;durP2;ratioP2;P2;SDS_P1;SDS_P2;PMS_P1;PMS_P2;Temp;Humidity;BMP_temperature;BMP_pressure;BME280_temperature;BME280_humidity;BME280_pressure;Samples;Min_cycle;Max_cycle;Signal;HPM_P1;HPM_P2
2022/03/19 00:01:59;;;;;;;14.93;3.42;;;9.60;90.00;;;;;;5012545;28;20054;-71
2022/03/19 00:04:24;;;;;;;13.52;3.65;;;9.50;89.50;;;;;;5012758;28;20026;-71
2022/03/19 00:06:50;;;;;;;9.63;2.97;;;9.40;90.00;;;;;;5012350;28;20038;-71
2022/03/19 00:09:16;;;;;;;12.05;3.72;;;9.50;90.10;;;;;;5012099;28;20090;-70
2022/03/19 00:11:41;;;;;;;16.73;3.92;;;9.50;90.20;;;;;;5012208;28;20034;-70
2022/03/19 00:14:11;;;;;;;14.68;3.72;;;9.40;90.40;;;;;;5012791;28;20088;-70
2022/03/19 00:16:36;;;;;;;17.70;4.20;;;9.40;90.30;;;;;;5012789;28;20018;-69
2022/03/19 00:19:02;;;;;;;12.02;3.42;;;9.50;90.30;;;;;;5011733;28;20022;-68
2022/03/19 00:21:28;;;;;;;10.70;3.47;;;9.50;90.40;;;;;;5012143;28;20092;-69
2022/03/19 00:23:53;;;;;;;17.20;3.67;;;9.40;90.40;;;;;;5012179;28;20478;-70
2022/03/19 00:26:20;;;;;;;21.70;4.18;;;9.40;90.40;;;;;;5010873;28;20029;-70
2022/03/19 00:28:46;;;;;;;20.02;4.00;;;9.40;90.30;;;;;;5012497;28;20026;-70
2022/03/19 00:31:12;;;;;;;8.38;3.13;;;9.40;90.60;;;;;;5012059;28;20034;-70
2022/03/19 00:33:37;;;;;;;15.38;4.50;;;9.40;90.60;;;;;;5010941;28;20104;-70
2022/03/19 00:36:06;;;;;;;18.42;3.92;;;9.30;90.80;;;;;;5010703;28;20041;-71
2022/03/19 00:38:32;;;;;;;18.83;4.03;;;9.30;90.70;;;;;;5011777;28;20045;-71
2022/03/19 00:40:57;;;;;;;18.33;3.80;;;9.30;90.60;;;;;;5012235;28;20036;-71
2022/03/19 00:43:23;;;;;;;10.63;2.78;;;9.30;90.80;;;;;;5012245;28;20026;-71
2022/03/19 00:45:49;;;;;;;9.82;3.22;;;9.20;91.00;;;;;;5011791;28;20041;-70
2022/03/19 00:48:16;;;;;;;18.77;4.10;;;9.10;90.90;;;;;;5011926;28;20125;-69
2022/03/19 00:50:41;;;;;;;17.48;3.47;;;8.90;91.00;;;;;;5011815;28;20030;-70
2022/03/19 00:53:07;;;;;;;12.00;3.78;;;8.90;91.30;;;;;;5011586;28;20107;-70
2022/03/19 00:55:33;;;;;;;20.70;4.43;;;8.90;91.30;;;;;;5012572;28;20304;-70
2022/03/19 00:57:59;;;;;;;19.20;4.40;;;9.10;91.20;;;;;;5011570;28;20030;-70
2022/03/19 01:00:26;;;;;;;17.42;4.00;;;9.00;91.10;;;;;;5011064;28;20026;-71
2022/03/19 01:02:53;;;;;;;21.10;4.32;;;9.00;91.20;;;;;;5011296;28;20029;-71
2022/03/19 01:05:19;;;;;;;19.80;3.85;;;9.00;91.30;;;;;;5011315;28;20414;-70
2022/03/19 01:07:51;;;;;;;14.82;4.05;;;8.90;91.10;;;;;;5010678;28;20051;-70
2022/03/19 01:10:21;;;;;;;16.63;4.25;;;9.00;91.10;;;;;;5011680;28;20030;-70
2022/03/19 01:12:48;;;;;;;16.73;4.75;;;9.00;91.20;;;;;;5011659;28;20068;-71
2022/03/19 01:15:15;;;;;;;22.40;4.78;;;9.00;91.20;;;;;;5011253;28;20121;-71
2022/03/19 01:17:41;;;;;;;15.18;4.03;;;9.00;91.20;;;;;;5011144;28;20038;-71
2022/03/19 01:20:10;;;;;;;19.90;5.20;;;8.90;91.20;;;;;;5011419;28;20127;-71
2022/03/19 01:22:40;;;;;;;16.27;4.75;;;8.80;91.40;;;;;;5012010;28;20045;-70
2022/03/19 01:25:07;;;;;;;16.75;4.00;;;8.80;91.30;;;;;;5011037;28;20037;-71
2022/03/19 01:27:33;;;;;;;25.60;4.70;;;8.80;91.30;;;;;;5011200;28;20543;-70
2022/03/19 01:30:00;;;;;;;18.27;4.57;;;8.80;91.40;;;;;;5011068;28;20038;-71
2022/03/19 01:32:25;;;;;;;19.58;4.20;;;8.70;91.50;;;;;;5009048;28;20049;-71
2022/03/19 01:34:51;;;;;;;12.00;4.07;;;8.70;91.50;;;;;;5010173;28;20022;-70
2022/03/19 01:37:17;;;;;;;17.58;3.90;;;8.70;91.60;;;;;;5010938;28;20383;-71
2022/03/19 01:39:42;;;;;;;11.63;3.67;;;8.70;91.50;;;;;;5010871;28;20421;-72
2022/03/19 01:42:08;;;;;;;19.13;4.88;;;8.60;91.30;;;;;;5010905;28;20037;-70
2022/03/19 01:44:34;;;;;;;12.43;3.42;;;8.60;91.30;;;;;;5010953;28;20026;-70
2022/03/19 01:47:08;;;;;;;21.33;3.40;;;8.50;91.10;;;;;;5009562;28;20791;-71
2022/03/19 01:49:33;;;;;;;10.82;3.80;;;8.60;91.10;;;;;;5010933;28;20026;-69
2022/03/19 01:51:59;;;;;;;15.13;3.92;;;8.50;91.00;;;;;;5010679;28;20056;-70
2022/03/19 01:54:37;;;;;;;13.55;3.60;;;8.50;91.00;;;;;;5010796;28;20116;-70
2022/03/19 01:57:03;;;;;;;11.55;3.95;;;8.50;91.10;;;;;;5010657;28;20507;-71
2022/03/19 01:59:34;;;;;;;13.93;3.75;;;8.40;91.00;;;;;;5010543;28;20034;-72
2022/03/19 02:02:02;;;;;;;16.83;3.85;;;8.40;91.00;;;;;;5010515;28;20088;-70
2022/03/19 02:04:28;;;;;;;11.63;3.38;;;8.30;91.10;;;;;;5009863;28;20023;-72
2022/03/19 02:06:54;;;;;;;15.40;3.50;;;8.30;91.20;;;;;;5009314;28;20038;-72
2022/03/19 02:09:20;;;;;;;10.32;3.10;;;8.30;91.20;;;;;;5010341;28;20026;-71
2022/03/19 02:11:46;;;;;;;12.40;3.80;;;8.30;91.40;;;;;;5010597;28;20040;-70
2022/03/19 02:14:12;;;;;;;16.60;4.00;;;8.30;91.30;;;;;;5009410;28;20065;-70
2022/03/19 02:16:39;;;;;;;10.82;3.13;;;8.30;91.20;;;;;;5011249;28;20034;-72
2022/03/19 02:19:05;;;;;;;13.68;4.53;;;8.30;91.30;;;;;;5010388;28;20140;-71
2022/03/19 02:21:42;;;;;;;16.15;3.38;;;8.20;91.30;;;;;;5010347;28;20128;-71
2022/03/19 02:26:52;;;;;;;17.52;3.17;;;8.20;91.30;;;;;;5010499;28;20418;-70
2022/03/19 02:29:20;;;;;;;19.00;4.28;;;8.30;91.40;;;;;;5010387;28;20034;-71
2022/03/19 02:31:47;;;;;;;14.23;3.33;;;8.10;91.30;;;;;;5010601;28;20022;-71
2022/03/19 02:34:13;;;;;;;15.60;4.20;;;8.10;91.30;;;;;;5010139;28;20096;-70
2022/03/19 02:36:42;;;;;;;14.05;3.33;;;8.20;91.20;;;;;;5010277;28;20468;-69
2022/03/19 02:39:09;;;;;;;14.43;4.07;;;8.20;91.30;;;;;;5010228;28;20042;-70
2022/03/19 02:41:35;;;;;;;16.80;4.45;;;8.10;91.30;;;;;;5010389;28;20053;-72
2022/03/19 02:44:02;;;;;;;9.73;3.22;;;8.10;91.50;;;;;;5013380;28;20119;-71
2022/03/19 02:46:42;;;;;;;12.38;3.50;;;8.10;91.40;;;;;;5014547;28;20101;-71
2022/03/19 02:49:07;;;;;;;18.05;4.07;;;8.00;91.50;;;;;;5013802;28;20026;-70
2022/03/19 02:51:37;;;;;;;21.42;4.05;;;7.80;91.70;;;;;;5013758;28;20358;-69
2022/03/19 02:54:05;;;;;;;22.10;4.30;;;7.90;91.90;;;;;;5014099;28;20041;-70
2022/03/19 02:56:33;;;;;;;13.30;3.42;;;7.90;91.80;;;;;;5012542;28;20053;-69
2022/03/19 02:59:05;;;;;;;17.23;4.40;;;7.90;91.90;;;;;;5012567;28;20069;-70
2022/03/19 03:01:31;;;;;;;25.85;3.97;;;7.80;91.70;;;;;;5014634;28;20022;-70
2022/03/19 03:03:57;;;;;;;16.73;3.78;;;7.80;91.90;;;;;;5013630;28;20578;-71
2022/03/19 03:06:22;;;;;;;13.70;4.05;;;7.80;91.90;;;;;;5013578;28;20057;-71
2022/03/19 03:08:48;;;;;;;19.50;4.22;;;7.70;92.00;;;;;;5013551;28;20026;-70
2022/03/19 03:11:13;;;;;;;22.40;4.03;;;7.60;92.20;;;;;;5013400;28;20447;-69
2022/03/19 03:13:39;;;;;;;15.57;4.28;;;7.70;92.10;;;;;;5013891;28;20458;-70
2022/03/19 03:16:05;;;;;;;16.40;3.88;;;7.70;92.40;;;;;;5013323;28;20187;-70
2022/03/19 03:18:31;;;;;;;14.93;4.05;;;7.70;92.10;;;;;;5013277;28;20072;-69
2022/03/19 03:20:59;;;;;;;17.63;3.65;;;7.70;92.20;;;;;;5013289;28;20376;-70
2022/03/19 03:23:26;;;;;;;17.00;4.20;;;7.70;92.20;;;;;;5013516;28;20061;-69
2022/03/19 03:25:52;;;;;;;17.00;4.22;;;7.60;92.10;;;;;;5013684;28;20022;-69
2022/03/19 03:28:18;;;;;;;18.20;4.28;;;7.60;92.30;;;;;;5013274;28;20480;-70
2022/03/19 03:30:44;;;;;;;13.68;4.25;;;7.60;92.30;;;;;;5013114;28;20112;-69
2022/03/19 03:33:10;;;;;;;17.23;4.03;;;7.60;92.30;;;;;;5013063;28;20991;-70
2022/03/19 03:35:35;;;;;;;16.55;4.55;;;7.60;92.30;;;;;;5013290;28;20030;-71
2022/03/19 03:38:01;;;;;;;19.48;3.67;;;7.50;92.40;;;;;;5013197;28;20095;-69
2022/03/19 03:40:27;;;;;;;12.20;3.35;;;7.60;92.40;;;;;;5013604;28;20022;-69
2022/03/19 03:42:54;;;;;;;12.88;3.55;;;7.30;92.40;;;;;;5011957;28;20030;-69
2022/03/19 03:45:20;;;;;;;18.15;4.30;;;7.20;92.60;;;;;;5012833;28;20077;-69
2022/03/19 03:47:46;;;;;;;18.58;3.97;;;7.10;92.70;;;;;;5012859;28;20113;-69
2022/03/19 03:50:12;;;;;;;14.07;4.07;;;7.00;92.90;;;;;;5012801;28;20442;-70
2022/03/19 03:52:38;;;;;;;16.02;4.50;;;7.00;93.00;;;;;;5013190;28;20164;-69
2022/03/19 03:55:06;;;;;;;16.08;4.50;;;6.90;93.10;;;;;;5011962;28;20367;-68
2022/03/19 03:57:34;;;;;;;20.35;3.80;;;6.90;93.10;;;;;;5012587;28;20644;-70
2022/03/19 04:00:01;;;;;;;21.77;3.85;;;6.90;93.20;;;;;;5012855;28;20077;-69
2022/03/19 04:02:27;;;;;;;11.02;4.35;;;6.80;93.30;;;;;;5012571;28;20034;-69
2022/03/19 04:04:52;;;;;;;19.98;4.30;;;6.70;93.40;;;;;;5012914;28;20077;-69
2022/03/19 04:07:18;;;;;;;13.80;4.28;;;6.60;93.40;;;;;;5012366;28;20068;-69
2022/03/19 04:09:43;;;;;;;15.02;4.38;;;6.70;93.40;;;;;;5012313;28;20037;-69
2022/03/19 04:12:10;;;;;;;17.88;3.40;;;6.90;93.40;;;;;;5012419;28;20026;-69
2022/03/19 04:14:35;;;;;;;21.65;4.13;;;6.70;93.50;;;;;;5012317;28;20041;-69
2022/03/19 04:17:04;;;;;;;17.52;4.43;;;6.60;93.60;;;;;;5012104;28;20026;-69
2022/03/19 04:19:30;;;;;;;18.67;4.85;;;6.60;93.80;;;;;;5012522;28;20018;-68
2022/03/19 04:21:56;;;;;;;15.48;4.75;;;6.50;93.80;;;;;;5011964;28;20494;-69
2022/03/19 04:24:21;;;;;;;15.25;4.30;;;6.50;93.90;;;;;;5012122;28;20033;-68
2022/03/19 04:26:47;;;;;;;16.35;4.43;;;6.70;93.70;;;;;;5012224;28;20474;-69
2022/03/19 04:29:12;;;;;;;18.88;3.60;;;6.60;93.70;;;;;;5012076;28;20025;-68
2022/03/19 04:31:38;;;;;;;18.73;3.90;;;6.60;93.70;;;;;;5012368;28;20037;-71
2022/03/19 04:34:04;;;;;;;12.73;3.95;;;6.50;93.80;;;;;;5011985;28;20038;-69
2022/03/19 04:36:29;;;;;;;22.08;5.53;;;6.40;93.80;;;;;;5010895;28;20032;-71
2022/03/19 04:38:55;;;;;;;17.58;4.13;;;6.50;94.10;;;;;;5010600;28;20065;-70
2022/03/19 04:41:21;;;;;;;26.42;5.40;;;6.50;93.90;;;;;;5011805;28;20168;-70
2022/03/19 04:43:46;;;;;;;15.07;4.47;;;6.70;93.90;;;;;;5012320;28;20084;-69
2022/03/19 04:46:12;;;;;;;18.58;4.43;;;6.70;93.70;;;;;;5011827;28;20022;-70
2022/03/19 04:48:38;;;;;;;29.05;5.18;;;6.80;93.50;;;;;;5011598;28;20126;-70
2022/03/19 04:51:06;;;;;;;16.38;3.80;;;6.70;93.50;;;;;;5011659;28;20096;-70
2022/03/19 04:53:32;;;;;;;18.48;4.38;;;6.70;93.60;;;;;;5011691;28;20571;-68
2022/03/19 04:55:57;;;;;;;24.30;5.03;;;6.70;93.70;;;;;;5010378;28;20062;-68
2022/03/19 04:58:23;;;;;;;19.42;4.60;;;6.80;93.90;;;;;;5010753;28;20041;-69
2022/03/19 05:00:49;;;;;;;26.77;6.05;;;6.80;93.80;;;;;;5010235;28;20483;-70
2022/03/19 05:03:15;;;;;;;21.08;5.57;;;6.70;93.70;;;;;;5011742;28;20026;-70
2022/03/19 05:05:40;;;;;;;23.50;4.70;;;6.70;93.80;;;;;;5010956;28;20034;-69
2022/03/19 05:08:06;;;;;;;22.35;4.78;;;6.80;93.80;;;;;;5010903;28;20040;-70
2022/03/19 05:13:17;;;;;;;21.17;4.50;;;6.70;94.00;;;;;;5011492;28;20045;-70
2022/03/19 05:15:43;;;;;;;19.10;4.95;;;6.70;94.00;;;;;;5011379;28;20091;-69
2022/03/19 05:18:09;;;;;;;21.38;5.10;;;6.70;93.90;;;;;;5011178;28;20042;-69
2022/03/19 05:20:35;;;;;;;16.20;4.93;;;6.70;94.00;;;;;;5009728;28;20371;-69
2022/03/19 05:23:00;;;;;;;17.15;4.25;;;6.70;94.00;;;;;;5010092;28;20037;-70
2022/03/19 05:25:26;;;;;;;19.23;4.55;;;6.70;94.00;;;;;;5011641;28;20033;-70
2022/03/19 05:27:52;;;;;;;19.02;5.05;;;6.70;94.00;;;;;;5011121;28;20084;-68
2022/03/19 05:30:18;;;;;;;18.50;4.97;;;6.70;94.20;;;;;;5018000;28;20030;-69
2022/03/19 05:32:44;;;;;;;16.02;5.00;;;6.70;94.20;;;;;;5010920;28;20124;-70
2022/03/19 05:35:09;;;;;;;20.67;5.00;;;6.70;94.20;;;;;;5010887;28;20026;-69
2022/03/19 05:37:35;;;;;;;17.38;5.43;;;6.60;94.20;;;;;;5009976;28;20059;-69
2022/03/19 05:40:04;;;;;;;23.60;4.72;;;6.60;94.10;;;;;;5010789;28;20053;-69
2022/03/19 05:42:30;;;;;;;15.10;5.45;;;6.60;94.10;;;;;;5010688;28;20497;-70
2022/03/19 05:44:56;;;;;;;17.83;4.90;;;6.60;94.20;;;;;;5010690;28;20047;-69
2022/03/19 05:47:22;;;;;;;21.83;4.95;;;6.60;94.30;;;;;;5010747;28;20085;-69
2022/03/19 05:49:48;;;;;;;22.08;5.05;;;6.60;94.30;;;;;;5011077;28;20025;-70
2022/03/19 05:52:13;;;;;;;18.33;5.13;;;6.60;94.30;;;;;;5025038;28;20543;-70
2022/03/19 05:54:39;;;;;;;23.05;5.63;;;6.60;94.30;;;;;;5010601;28;20034;-70
2022/03/19 05:57:04;;;;;;;17.73;5.60;;;6.60;94.30;;;;;;5010440;28;20045;-70
2022/03/19 05:59:31;;;;;;;21.38;5.18;;;6.60;94.20;;;;;;5010524;28;20091;-69
2022/03/19 06:01:56;;;;;;;22.33;5.35;;;6.60;94.30;;;;;;5010796;28;20037;-69
2022/03/19 06:04:22;;;;;;;15.73;4.57;;;6.60;94.40;;;;;;5010950;28;20050;-69
2022/03/19 06:06:47;;;;;;;20.15;5.13;;;6.50;94.30;;;;;;5010610;28;20431;-69
2022/03/19 06:09:13;;;;;;;18.80;4.88;;;6.50;94.20;;;;;;5010492;28;20037;-69
2022/03/19 06:11:39;;;;;;;18.83;5.38;;;6.50;94.30;;;;;;5010520;28;20463;-69
2022/03/19 06:14:05;;;;;;;14.27;5.05;;;6.50;94.20;;;;;;5025753;28;20025;-69
2022/03/19 06:16:31;;;;;;;17.17;5.05;;;6.50;94.30;;;;;;5011148;28;20126;-69
2022/03/19 06:18:57;;;;;;;24.23;5.85;;;6.50;94.30;;;;;;5013387;28;20056;-69
2022/03/19 06:21:23;;;;;;;25.52;6.15;;;6.50;94.30;;;;;;5029597;28;20391;-69
2022/03/19 06:23:50;;;;;;;13.40;5.22;;;6.60;94.20;;;;;;5029863;28;20375;-71
2022/03/19 06:26:16;;;;;;;19.38;4.38;;;6.60;94.20;;;;;;5014493;28;20085;-69
2022/03/19 06:28:41;;;;;;;18.25;5.88;;;6.70;94.30;;;;;;5012455;28;20030;-69
2022/03/19 06:31:07;;;;;;;23.35;5.72;;;6.60;94.20;;;;;;5014865;28;20529;-69
2022/03/19 06:33:33;;;;;;;21.20;5.90;;;6.60;94.20;;;;;;5015735;28;20100;-70
2022/03/19 06:38:43;;;;;;;28.15;6.43;;;6.60;94.10;;;;;;5014966;28;20088;-70
2022/03/19 06:41:11;;;;;;;29.50;6.35;;;6.70;94.10;;;;;;5014874;28;20026;-71
2022/03/19 06:43:37;;;;;;;21.98;5.60;;;6.80;94.00;;;;;;5014875;28;20030;-69
2022/03/19 06:46:05;;;;;;;22.38;5.72;;;6.80;94.00;;;;;;5015207;28;20018;-70
2022/03/19 06:48:31;;;;;;;25.13;6.55;;;6.80;94.10;;;;;;5015149;28;20093;-69
2022/03/19 06:50:57;;;;;;;15.48;5.43;;;6.80;94.10;;;;;;5014741;28;20470;-70
2022/03/19 06:53:24;;;;;;;20.95;6.10;;;6.70;94.00;;;;;;5014730;28;20125;-72
2022/03/19 06:55:51;;;;;;;19.27;4.72;;;6.80;94.20;;;;;;5014854;28;20026;-71
2022/03/19 06:58:16;;;;;;;19.27;6.15;;;6.80;94.10;;;;;;5014220;28;20021;-72
2022/03/19 07:00:42;;;;;;;20.10;6.00;;;6.80;94.10;;;;;;5014022;28;20324;-69
2022/03/19 07:03:08;;;;;;;20.92;6.13;;;6.80;94.00;;;;;;5014455;28;20034;-70
2022/03/19 07:05:34;;;;;;;20.23;5.95;;;6.80;94.00;;;;;;5027716;28;20292;-70
2022/03/19 07:08:01;;;;;;;21.90;5.35;;;6.80;94.10;;;;;;5014292;28;20026;-71
2022/03/19 07:10:27;;;;;;;18.02;5.10;;;6.90;94.00;;;;;;5028623;28;20052;-70
2022/03/19 07:12:57;;;;;;;13.20;4.80;;;6.90;93.90;;;;;;5011288;28;20337;-72
2022/03/19 07:15:28;;;;;;;10.98;4.65;;;7.00;93.90;;;;;;5014266;28;20036;-71
2022/03/19 07:17:54;;;;;;;18.20;5.32;;;7.00;93.90;;;;;;5014487;28;20106;-71
2022/03/19 07:20:19;;;;;;;20.52;6.30;;;7.00;93.90;;;;;;5009450;28;20038;-72
2022/03/19 07:22:54;;;;;;;23.77;5.50;;;7.10;93.80;;;;;;5009073;28;20052;-71
2022/03/19 07:25:22;;;;;;;18.75;5.25;;;7.10;93.70;;;;;;5014004;28;20452;-70
2022/03/19 07:27:54;;;;;;;18.80;5.15;;;7.20;93.60;;;;;;5014045;28;20113;-70
2022/03/19 07:30:20;;;;;;;21.85;5.53;;;7.20;93.60;;;;;;5012779;28;20022;-73
2022/03/19 07:32:45;;;;;;;19.60;5.50;;;7.20;93.50;;;;;;5014194;28;20040;-70
2022/03/19 07:35:13;;;;;;;21.98;5.75;;;7.30;93.40;;;;;;5014074;28;20444;-71
2022/03/19 07:37:40;;;;;;;18.87;4.73;;;7.30;93.20;;;;;;5027766;28;20120;-75
2022/03/19 07:40:11;;;;;;;23.27;5.28;;;7.40;93.10;;;;;;5013171;28;20121;-69
2022/03/19 07:42:37;;;;;;;19.33;4.13;;;7.40;93.00;;;;;;5012652;28;20442;-68
2022/03/19 07:45:04;;;;;;;18.98;4.88;;;7.40;92.70;;;;;;5013637;28;20138;-70
2022/03/19 07:47:30;;;;;;;19.52;3.83;;;7.40;92.60;;;;;;5013503;28;20080;-71
2022/03/19 07:49:56;;;;;;;22.58;4.47;;;7.50;92.50;;;;;;5013899;28;20080;-70
2022/03/19 07:52:22;;;;;;;17.95;4.93;;;7.50;92.40;;;;;;5013489;28;20022;-71
2022/03/19 07:54:47;;;;;;;18.88;3.55;;;7.50;92.30;;;;;;5013611;28;20026;-71
2022/03/19 07:57:13;;;;;;;15.93;4.50;;;7.50;92.30;;;;;;5028902;28;20046;-69
2022/03/19 07:59:39;;;;;;;19.77;3.55;;;7.50;92.20;;;;;;5028900;28;20022;-71
2022/03/19 08:02:05;;;;;;;11.57;3.33;;;7.50;92.10;;;;;;5013422;28;20025;-72
2022/03/19 08:04:31;;;;;;;19.48;4.03;;;7.60;92.20;;;;;;5013370;28;20504;-72
2022/03/19 08:06:56;;;;;;;19.05;3.63;;;7.70;91.90;;;;;;5013544;28;20018;-73
2022/03/19 08:09:23;;;;;;;13.38;3.30;;;7.70;91.60;;;;;;5013328;28;20034;-72
2022/03/19 08:11:50;;;;;;;17.52;3.40;;;7.70;91.40;;;;;;5013224;28;20034;-72
2022/03/19 08:14:18;;;;;;;10.70;3.53;;;7.80;91.30;;;;;;5013229;28;20364;-74
2022/03/19 08:16:43;;;;;;;17.98;3.00;;;7.80;91.10;;;;;;5013080;28;20030;-74
2022/03/19 08:19:12;;;;;;;20.13;3.20;;;7.80;91.20;;;;;;5012692;28;20041;-73
2022/03/19 08:21:39;;;;;;;13.02;3.63;;;7.90;91.20;;;;;;5013444;28;20071;-73
2022/03/19 08:24:06;;;;;;;18.77;4.35;;;7.90;91.10;;;;;;5012981;28;20026;-72
2022/03/19 08:26:32;;;;;;;18.10;3.60;;;8.00;91.00;;;;;;5028543;28;20116;-74
2022/03/19 08:28:58;;;;;;;14.82;3.47;;;8.10;90.70;;;;;;5013245;28;20030;-73
2022/03/19 08:31:24;;;;;;;16.73;3.40;;;8.10;90.80;;;;;;5012763;28;20025;-72
2022/03/19 08:33:49;;;;;;;17.25;3.92;;;8.10;90.80;;;;;;5013474;28;20022;-71
2022/03/19 08:36:15;;;;;;;9.73;2.70;;;8.20;90.70;;;;;;5012925;28;20433;-73
2022/03/19 08:41:25;;;;;;;16.85;2.50;;;8.30;90.20;;;;;;5012707;28;20048;-71
2022/03/19 08:43:50;;;;;;;7.43;2.53;;;8.30;90.10;;;;;;5012952;28;20077;-72
2022/03/19 08:46:16;;;;;;;10.30;2.83;;;8.40;90.10;;;;;;5012437;28;20084;-71
2022/03/19 08:48:42;;;;;;;16.80;3.05;;;8.40;90.10;;;;;;5028475;28;20104;-72
2022/03/19 08:53:52;;;;;;;13.65;3.10;;;8.60;90.00;;;;;;5012422;28;20041;-72
2022/03/19 08:56:17;;;;;;;14.90;2.95;;;8.70;89.80;;;;;;5012707;28;20018;-71
2022/03/19 08:58:43;;;;;;;11.93;2.65;;;8.80;89.00;;;;;;5012232;28;20494;-72
2022/03/19 09:01:09;;;;;;;10.18;2.95;;;8.90;88.70;;;;;;5012804;28;20029;-71
2022/03/19 09:03:34;;;;;;;15.55;2.92;;;9.00;88.50;;;;;;5011863;28;20041;-71
2022/03/19 09:06:00;;;;;;;10.32;2.97;;;9.30;88.50;;;;;;5012283;28;20030;-77
2022/03/19 09:08:26;;;;;;;9.35;2.35;;;10.40;85.80;;;;;;5012082;28;20041;-71
2022/03/19 09:10:52;;;;;;;10.30;3.15;;;12.20;82.00;;;;;;5012017;28;20030;-72
2022/03/19 09:13:18;;;;;;;13.65;2.58;;;14.00;77.90;;;;;;5011990;28;20440;-73
2022/03/19 09:15:44;;;;;;;10.68;2.30;;;15.30;73.10;;;;;;5012576;28;20029;-72
2022/03/19 09:18:09;;;;;;;7.70;2.78;;;16.80;68.80;;;;;;5011565;28;20437;-72
2022/03/19 09:20:35;;;;;;;8.25;2.33;;;18.30;63.80;;;;;;5011646;28;20046;-72
2022/03/19 09:23:02;;;;;;;12.25;3.17;;;18.90;60.10;;;;;;5011917;28;20026;-72
2022/03/19 09:25:28;;;;;;;7.20;2.17;;;19.80;57.70;;;;;;5012128;28;20022;-72
2022/03/19 09:27:53;;;;;;;12.77;2.55;;;20.70;56.00;;;;;;5012451;28;20084;-72
2022/03/19 09:30:19;;;;;;;9.73;2.60;;;21.40;54.80;;;;;;5012130;28;20498;-73
2022/03/19 09:32:45;;;;;;;11.75;2.83;;;22.00;52.50;;;;;;5011836;28;20034;-71
2022/03/19 09:35:10;;;;;;;12.43;2.60;;;22.80;50.80;;;;;;5011857;28;20037;-71
2022/03/19 09:37:36;;;;;;;14.30;3.13;;;23.50;49.10;;;;;;5011619;28;20048;-72
2022/03/19 09:40:02;;;;;;;12.30;2.55;;;23.80;47.10;;;;;;5012009;28;20030;-71
2022/03/19 09:42:28;;;;;;;6.95;2.30;;;23.80;46.50;;;;;;5011823;28;20140;-71
2022/03/19 09:44:54;;;;;;;9.13;2.30;;;23.90;45.90;;;;;;5011704;28;20125;-71
2022/03/19 09:47:20;;;;;;;10.95;2.40;;;24.20;45.30;;;;;;5011678;28;20109;-72
2022/03/19 09:49:45;;;;;;;9.35;2.33;;;24.50;43.40;;;;;;5011585;28;20037;-71
2022/03/19 09:52:12;;;;;;;5.55;1.70;;;24.10;43.00;;;;;;5010660;28;20058;-72
2022/03/19 09:54:38;;;;;;;6.80;2.33;;;24.30;43.20;;;;;;5012224;28;20403;-72
2022/03/19 09:57:04;;;;;;;7.35;1.83;;;24.20;42.30;;;;;;5011109;28;20026;-72
2022/03/19 09:59:30;;;;;;;6.00;1.83;;;24.50;42.00;;;;;;5011574;28;20026;-72
2022/03/19 10:01:56;;;;;;;7.30;2.08;;;24.90;41.40;;;;;;5026707;28;20137;-72
2022/03/19 10:04:22;;;;;;;10.60;2.13;;;24.90;40.90;;;;;;5011239;28;20018;-72
2022/03/19 10:09:41;;;;;;;10.20;1.80;;;25.30;40.20;;;;;;5011163;28;20045;-71
2022/03/19 10:12:16;;;;;;;9.52;1.92;;;25.00;39.50;;;;;;5011271;28;20030;-72
2022/03/19 10:14:46;;;;;;;6.38;1.70;;;25.00;39.10;;;;;;5011069;28;20026;-69
2022/03/19 10:17:28;;;;;;;7.10;1.80;;;24.70;39.50;;;;;;5011168;28;20471;-69
2022/03/19 10:20:02;;;;;;;8.88;2.05;;;25.30;38.70;;;;;;5010851;28;20034;-72
2022/03/19 10:22:29;;;;;;;8.18;2.10;;;25.40;38.20;;;;;;5011234;28;20245;-71
2022/03/19 10:25:00;;;;;;;7.80;2.03;;;25.20;37.50;;;;;;5011479;28;20026;-69
2022/03/19 10:27:50;;;;;;;11.40;2.50;;;25.30;37.30;;;;;;5010743;28;20033;-71
2022/03/19 10:30:19;;;;;;;7.35;2.20;;;25.70;37.30;;;;;;5010815;28;20436;-72
2022/03/19 10:32:51;;;;;;;9.63;2.10;;;26.00;37.70;;;;;;5026419;28;20053;-72
2022/03/19 10:35:24;;;;;;;8.52;2.30;;;26.00;37.50;;;;;;5011018;28;20120;-71
2022/03/19 10:37:50;;;;;;;8.07;2.08;;;26.20;37.10;;;;;;5010806;28;20376;-71
2022/03/19 10:40:15;;;;;;;7.25;1.75;;;26.10;36.90;;;;;;5010929;28;20038;-71
2022/03/19 10:42:42;;;;;;;8.15;1.90;;;26.00;36.30;;;;;;5011489;28;20026;-72
2022/03/19 10:45:18;;;;;;;6.28;2.55;;;26.50;35.90;;;;;;5010716;28;20038;-71
2022/03/19 10:47:46;;;;;;;11.80;2.38;;;26.70;35.90;;;;;;5026115;28;20058;-72
2022/03/19 10:50:18;;;;;;;6.97;1.77;;;27.30;35.40;;;;;;5010934;28;20443;-73
2022/03/19 10:52:46;;;;;;;7.70;2.35;;;27.60;34.60;;;;;;5009242;28;20428;-75
2022/03/19 10:55:11;;;;;;;;;;;26.80;34.40;;;;;;5009944;28;20116;-71
2022/03/19 10:57:37;;;;;;;6.05;1.73;;;26.40;35.00;;;;;;5011447;28;19995;-73
2022/03/19 11:00:04;;;;;;;7.47;2.20;;;26.30;34.70;;;;;;5010724;28;20073;-75
2022/03/19 11:02:31;;;;;;;5.80;1.75;;;26.30;35.60;;;;;;5011122;28;20077;-75
2022/03/19 11:05:00;;;;;;;6.95;2.00;;;26.10;35.70;;;;;;5013765;28;20405;-75
2022/03/19 11:07:27;;;;;;;8.85;2.28;;;26.20;36.10;;;;;;5013260;28;20177;-72
2022/03/19 11:09:56;;;;;;;7.00;1.90;;;26.20;35.60;;;;;;5014714;28;20026;-72
2022/03/19 11:12:26;;;;;;;9.70;2.00;;;26.40;35.50;;;;;;5029604;28;20383;-71
2022/03/19 11:14:53;;;;;;;8.30;1.85;;;26.50;35.50;;;;;;5013934;28;20448;-72
2022/03/19 11:17:24;;;;;;;5.43;1.52;;;25.90;34.90;;;;;;5014248;28;20064;-72
2022/03/19 11:19:55;;;;;;;4.40;1.33;;;25.20;35.00;;;;;;5013793;28;20088;-72
2022/03/19 11:22:25;;;;;;;7.38;1.45;;;25.00;35.10;;;;;;5014330;28;20127;-71
2022/03/19 11:25:22;;;;;;;4.32;1.63;;;24.90;35.10;;;;;;5014800;28;20032;-70
2022/03/19 11:27:51;;;;;;;5.13;1.52;;;24.30;34.90;;;;;;5014289;28;20132;-69
2022/03/19 11:30:30;;;;;;;5.13;1.30;;;23.70;35.50;;;;;;5014030;28;20030;-70
2022/03/19 11:33:20;;;;;;;4.50;1.20;;;23.50;36.30;;;;;;5029262;28;20113;-69
2022/03/19 11:35:56;;;;;;;4.57;1.65;;;23.70;35.80;;;;;;5008531;28;20108;-70
2022/03/19 11:38:23;;;;;;;8.30;1.38;;;23.60;35.70;;;;;;5013730;28;20447;-69
2022/03/19 11:40:57;;;;;;;4.85;1.30;;;23.20;35.70;;;;;;5013692;28;20192;-71
2022/03/19 11:43:35;;;;;;;5.47;1.23;;;23.10;35.80;;;;;;5013740;28;20537;-68
2022/03/19 11:46:04;;;;;;;4.18;1.42;;;22.60;35.90;;;;;;5029618;28;20113;-69
2022/03/19 11:48:38;;;;;;;5.82;1.52;;;21.70;36.30;;;;;;5013318;28;20030;-69
2022/03/19 11:51:24;;;;;;;5.35;1.30;;;20.80;37.40;;;;;;5013522;28;20030;-69
2022/03/19 11:54:01;;;;;;;5.88;2.08;;;19.60;38.20;;;;;;5013659;28;20054;-72
2022/03/19 11:56:49;;;;;;;6.40;1.45;;;19.20;40.30;;;;;;5013569;28;20037;-73
2022/03/19 11:59:21;;;;;;;8.30;1.67;;;18.60;40.90;;;;;;5007005;28;20060;-71
2022/03/19 12:02:05;;;;;;;5.97;1.65;;;18.10;41.30;;;;;;5013293;28;20034;-71
2022/03/19 12:04:44;;;;;;;4.05;0.90;;;18.10;42.00;;;;;;5013299;28;20034;-71
2022/03/19 12:07:11;;;;;;;4.28;1.30;;;17.90;41.70;;;;;;5028652;28;20026;-69
2022/03/19 12:09:39;;;;;;;6.20;1.45;;;17.50;42.00;;;;;;5013459;28;20400;-70
2022/03/19 12:12:18;;;;;;;7.80;1.38;;;17.30;42.60;;;;;;5028626;28;20030;-70
2022/03/19 12:14:44;;;;;;;5.63;1.25;;;17.20;42.80;;;;;;5012939;28;20034;-71
2022/03/19 12:17:29;;;;;;;4.60;1.10;;;17.20;43.20;;;;;;5012581;28;20344;-71
2022/03/19 12:19:58;;;;;;;6.75;1.52;;;17.20;43.00;;;;;;5012827;28;20139;-70
2022/03/19 12:22:31;;;;;;;5.38;1.58;;;17.10;43.10;;;;;;5013073;28;20018;-71
2022/03/19 12:25:20;;;;;;;5.28;1.55;;;17.00;43.40;;;;;;5013205;28;20022;-70
2022/03/19 12:27:57;;;;;;;5.97;1.30;;;16.80;43.50;;;;;;5012839;28;20121;-74
2022/03/19 12:30:24;;;;;;;5.85;1.42;;;16.80;43.20;;;;;;5013009;28;20460;-73
2022/03/19 12:32:55;;;;;;;6.80;1.45;;;16.70;42.70;;;;;;5027997;28;20069;-73
2022/03/19 12:35:22;;;;;;;4.03;1.30;;;16.30;42.60;;;;;;5008273;28;20076;-73
2022/03/19 12:37:53;;;;;;;6.90;1.00;;;16.20;42.90;;;;;;4998459;28;20037;-74
2022/03/19 12:40:27;;;;;;;4.85;1.23;;;15.80;43.50;;;;;;5012514;28;20026;-73
2022/03/19 12:42:58;;;;;;;5.25;1.65;;;15.70;43.80;;;;;;5013048;28;20431;-73
2022/03/19 12:45:38;;;;;;;9.60;1.42;;;15.70;43.90;;;;;;5027903;28;20045;-73
2022/03/19 12:48:18;;;;;;;6.15;1.65;;;15.60;43.90;;;;;;5012621;28;20368;-73
2022/03/19 12:50:53;;;;;;;4.88;1.02;;;15.60;44.40;;;;;;5027807;28;20034;-74
2022/03/19 12:53:30;;;;;;;2.60;1.17;;;15.60;44.30;;;;;;5008234;28;20026;-73
2022/03/19 12:56:16;;;;;;;5.18;1.40;;;15.60;44.40;;;;;;4998910;28;20479;-73
2022/03/19 12:58:45;;;;;;;4.07;1.50;;;15.40;44.50;;;;;;5012331;28;20046;-74
2022/03/19 13:01:12;;;;;;;6.05;1.55;;;15.40;44.90;;;;;;5012252;28;20026;-73
2022/03/19 13:03:38;;;;;;;4.90;1.20;;;15.20;45.20;;;;;;5012913;28;20080;-73
2022/03/19 13:06:04;;;;;;;5.28;1.52;;;15.20;45.40;;;;;;5012216;28;20256;-74
2022/03/19 13:08:29;;;;;;;4.53;1.60;;;15.10;45.60;;;;;;5012130;28;20463;-74